Time;durP1;ratioP1;P1;durP2;ratioP2;P2;SDS_P1;SDS_P2;PMS_P1;PMS_P2;Temp;Humidity;BMP_temperature;BMP_pressure;BME280_temperature;BME280_humidity;BME280_pressure;Samples;Min_cycle;Max_cycle;Signal;HPM_P1;HPM_P2
2022/05/02 00:00:26;;;;;;;5.43;3.92;;;9.50;99.90;;;;;;5033205;28;20105;-37
2022/05/02 00:02:52;;;;;;;5.43;3.78;;;9.60;99.90;;;;;;5033158;28;20501;-38
2022/05/02 00:05:18;;;;;;;6.82;4.85;;;9.50;99.90;;;;;;5033505;28;20033;-55
2022/05/02 00:07:43;;;;;;;4.68;3.58;;;9.50;99.90;;;;;;5033009;28;20592;-37
2022/05/02 00:10:10;;;;;;;6.05;4.65;;;9.50;99.90;;;;;;5033374;28;20498;-45
2022/05/02 00:12:35;;;;;;;8.07;4.15;;;9.50;99.90;;;;;;5032780;28;20495;-36
2022/05/02 00:15:02;;;;;;;9.18;5.10;;;9.50;99.90;;;;;;5033011;28;20022;-36
2022/05/02 00:20:12;;;;;;;7.88;4.05;;;9.40;99.90;;;;;;5033008;28;20087;-35
2022/05/02 00:22:38;;;;;;;5.90;4.15;;;9.40;99.90;;;;;;5031775;28;20448;-37
2022/05/02 00:25:04;;;;;;;8.10;4.55;;;9.40;99.90;;;;;;5033025;28;20022;-27
2022/05/02 00:27:30;;;;;;;5.60;3.85;;;9.30;99.90;;;;;;5033191;28;20025;-31
2022/05/02 00:29:56;;;;;;;7.60;4.95;;;9.30;99.90;;;;;;5032946;28;20075;-32
2022/05/02 00:32:21;;;;;;;4.88;3.90;;;9.30;99.90;;;;;;5033111;28;20128;-28
2022/05/02 00:34:47;;;;;;;5.90;4.25;;;9.30;99.90;;;;;;5032798;28;20018;-33
2022/05/02 00:37:14;;;;;;;7.32;3.95;;;9.20;99.90;;;;;;5032803;28;20025;-28
2022/05/02 00:39:40;;;;;;;4.40;3.45;;;9.20;99.90;;;;;;5033107;28;20049;-47
2022/05/02 00:42:05;;;;;;;6.55;4.80;;;9.20;99.90;;;;;;5032735;28;20060;-35
2022/05/02 00:44:31;;;;;;;8.45;4.38;;;9.20;99.90;;;;;;5031427;28;20033;-37
2022/05/02 00:46:57;;;;;;;6.40;4.28;;;9.20;99.90;;;;;;5033072;28;20033;-40
2022/05/02 00:49:23;;;;;;;6.22;4.40;;;9.20;99.90;;;;;;5032724;28;20492;-37
2022/05/02 00:51:48;;;;;;;10.88;4.60;;;9.20;99.90;;;;;;5032600;28;20026;-34
2022/05/02 00:54:14;;;;;;;9.93;4.63;;;9.20;99.90;;;;;;5032667;28;20049;-33
2022/05/02 00:56:40;;;;;;;8.35;4.88;;;9.10;99.90;;;;;;5032664;28;20092;-30
2022/05/02 00:59:08;;;;;;;8.95;4.30;;;9.00;99.90;;;;;;5032591;28;20025;-31
2022/05/02 01:01:34;;;;;;;10.82;5.28;;;9.00;99.90;;;;;;5032466;28;20033;-29
2022/05/02 01:03:59;;;;;;;6.28;4.28;;;9.00;99.90;;;;;;5032832;28;20025;-30
2022/05/02 01:09:09;;;;;;;6.18;4.40;;;9.00;99.90;;;;;;5032544;28;20095;-29
2022/05/02 01:11:34;;;;;;;7.07;4.68;;;9.00;99.90;;;;;;5032302;28;20050;-28
2022/05/02 01:14:00;;;;;;;7.63;4.53;;;9.00;99.90;;;;;;5032480;28;20053;-31
2022/05/02 01:16:28;;;;;;;9.23;5.28;;;9.00;99.90;;;;;;5032534;28;20022;-34
2022/05/02 01:18:57;;;;;;;7.18;4.30;;;8.90;99.90;;;;;;5033192;28;20035;-46
2022/05/02 01:21:25;;;;;;;7.97;4.68;;;8.90;99.90;;;;;;5036048;28;20104;-43
2022/05/02 01:23:52;;;;;;;10.13;5.00;;;8.90;99.90;;;;;;5036340;28;20469;-35
2022/05/02 01:26:19;;;;;;;8.40;3.95;;;8.90;99.90;;;;;;5036103;28;20075;-45
2022/05/02 01:28:47;;;;;;;5.88;3.90;;;8.80;99.90;;;;;;5036000;28;20071;-37
2022/05/02 01:31:14;;;;;;;5.97;4.03;;;8.80;99.90;;;;;;5035839;28;20499;-36
2022/05/02 01:33:40;;;;;;;6.23;4.27;;;8.80;99.90;;;;;;5036063;28;20474;-36
2022/05/02 01:36:06;;;;;;;8.63;4.53;;;8.70;99.90;;;;;;5035835;28;20264;-39
2022/05/02 01:38:33;;;;;;;10.20;4.78;;;8.70;99.90;;;;;;5035802;28;20025;-35
2022/05/02 01:40:59;;;;;;;8.70;4.43;;;8.70;99.90;;;;;;5035725;28;20025;-36
2022/05/02 01:43:26;;;;;;;7.82;4.57;;;8.70;99.90;;;;;;5035709;28;20164;-41
2022/05/02 01:45:52;;;;;;;6.18;4.20;;;8.70;99.90;;;;;;5035570;28;20049;-49
2022/05/02 01:48:17;;;;;;;6.63;4.47;;;8.70;99.90;;;;;;5035678;28;20033;-37
2022/05/02 01:50:43;;;;;;;6.82;4.63;;;8.70;99.90;;;;;;5035563;28;20548;-44
2022/05/02 01:53:08;;;;;;;8.55;5.00;;;8.60;99.90;;;;;;5035449;28;20030;-37
2022/05/02 01:55:34;;;;;;;6.70;4.85;;;8.60;99.90;;;;;;5035450;28;20021;-37
2022/05/02 01:57:59;;;;;;;13.73;5.65;;;8.60;99.90;;;;;;5034112;28;20112;-36
2022/05/02 02:00:25;;;;;;;7.18;5.15;;;8.70;99.90;;;;;;5035438;28;20025;-29
2022/05/02 02:02:51;;;;;;;7.35;4.75;;;8.60;99.90;;;;;;5033974;28;20029;-44
2022/05/02 02:08:00;;;;;;;9.57;4.80;;;8.60;99.90;;;;;;5035278;28;20080;-32
2022/05/02 02:10:26;;;;;;;6.80;4.30;;;8.60;99.90;;;;;;5035135;28;20466;-28
2022/05/02 02:12:52;;;;;;;13.15;5.57;;;8.60;99.90;;;;;;5034908;28;20468;-30
2022/05/02 02:15:17;;;;;;;10.07;4.72;;;8.50;99.90;;;;;;5035124;28;20023;-29
2022/05/02 02:17:44;;;;;;;6.63;4.53;;;8.60;99.90;;;;;;5035061;28;20079;-36
2022/05/02 02:20:11;;;;;;;10.88;5.22;;;8.60;99.90;;;;;;5035085;28;20021;-36
2022/05/02 02:22:37;;;;;;;6.60;4.05;;;8.50;99.90;;;;;;5034996;28;20061;-36
2022/05/02 02:25:04;;;;;;;6.30;4.13;;;8.50;99.90;;;;;;5034996;28;20483;-36
2022/05/02 02:27:30;;;;;;;8.10;5.50;;;8.40;99.90;;;;;;5035184;28;20051;-36
2022/05/02 02:29:55;;;;;;;8.15;5.03;;;8.40;99.90;;;;;;5034860;28;20043;-53
2022/05/02 02:32:21;;;;;;;11.10;5.07;;;8.40;99.90;;;;;;5034706;28;20034;-32
2022/05/02 02:34:47;;;;;;;8.40;4.97;;;8.30;99.90;;;;;;5034884;28;20024;-29
2022/05/02 02:37:12;;;;;;;8.95;5.53;;;8.30;99.90;;;;;;5034683;28;20481;-29
2022/05/02 02:39:38;;;;;;;8.20;4.88;;;8.30;99.90;;;;;;5034690;28;20099;-35
2022/05/02 02:42:04;;;;;;;9.93;4.75;;;8.30;99.90;;;;;;5034654;28;20064;-36
2022/05/02 02:44:29;;;;;;;10.13;5.32;;;8.30;99.90;;;;;;5034557;28;20531;-37
2022/05/02 02:46:55;;;;;;;9.13;5.28;;;8.20;99.90;;;;;;5034491;28;20029;-35
2022/05/02 02:49:21;;;;;;;6.35;4.50;;;8.20;99.90;;;;;;5034505;28;20040;-36
2022/05/02 02:51:46;;;;;;;8.82;4.80;;;8.20;99.90;;;;;;5034311;28;20065;-35
2022/05/02 02:54:12;;;;;;;7.72;4.63;;;8.10;99.90;;;;;;5034385;28;20025;-36
2022/05/02 02:56:38;;;;;;;6.28;4.25;;;8.10;99.90;;;;;;5034532;28;20520;-37
2022/05/02 02:59:04;;;;;;;6.75;4.90;;;8.10;99.90;;;;;;5034256;28;20033;-29
2022/05/02 03:01:30;;;;;;;7.53;5.43;;;8.00;99.90;;;;;;5032829;28;20520;-30
2022/05/02 03:03:56;;;;;;;8.75;5.22;;;8.00;99.90;;;;;;5034135;28;20048;-31
2022/05/02 03:06:21;;;;;;;7.25;5.05;;;8.00;99.90;;;;;;5034082;28;20120;-29
2022/05/02 03:08:47;;;;;;;12.48;5.40;;;8.00;99.90;;;;;;5034043;28;20509;-35
2022/05/02 03:11:13;;;;;;;8.65;5.18;;;8.00;99.90;;;;;;5033721;28;20041;-36
2022/05/02 03:13:39;;;;;;;6.80;4.88;;;7.90;99.90;;;;;;5034053;28;20036;-37
2022/05/02 03:16:05;;;;;;;8.13;5.53;;;7.90;99.90;;;;;;5033963;28;20474;-37
2022/05/02 03:18:31;;;;;;;8.77;5.55;;;7.90;99.90;;;;;;5033899;28;20470;-37
2022/05/02 03:20:57;;;;;;;7.07;4.75;;;7.90;99.90;;;;;;5033860;28;20028;-40
2022/05/02 03:23:23;;;;;;;9.00;5.72;;;7.80;99.90;;;;;;5033834;28;20040;-29
2022/05/02 03:25:49;;;;;;;7.53;5.18;;;7.80;99.90;;;;;;5033780;28;20474;-31
2022/05/02 03:28:15;;;;;;;9.10;5.15;;;7.80;99.90;;;;;;5034018;28;20045;-28
2022/05/02 03:30:42;;;;;;;12.13;5.15;;;7.80;99.90;;;;;;5033642;28;20025;-30
2022/05/02 03:33:07;;;;;;;7.93;5.30;;;7.80;99.90;;;;;;5033801;28;20115;-30
2022/05/02 03:35:33;;;;;;;9.07;5.03;;;7.80;99.90;;;;;;5033455;28;20057;-28
2022/05/02 03:37:59;;;;;;;9.52;6.18;;;7.70;99.90;;;;;;5033537;28;20056;-29
2022/05/02 03:40:25;;;;;;;10.57;5.65;;;7.70;99.90;;;;;;5033715;28;20096;-30
2022/05/02 03:42:50;;;;;;;9.07;4.75;;;7.70;99.90;;;;;;5033072;28;20022;-33
2022/05/02 03:45:16;;;;;;;9.60;5.47;;;7.70;99.90;;;;;;5033382;28;20489;-30
2022/05/02 03:47:41;;;;;;;12.93;6.25;;;7.60;99.90;;;;;;5033618;28;20529;-29
2022/05/02 03:50:07;;;;;;;9.18;5.28;;;7.60;99.90;;;;;;5033344;28;20088;-44
2022/05/02 03:52:33;;;;;;;7.40;5.05;;;7.60;99.90;;;;;;5033276;28;20061;-28
2022/05/02 03:54:59;;;;;;;11.07;5.43;;;7.60;99.90;;;;;;5033269;28;20057;-33
2022/05/02 03:57:24;;;;;;;9.23;5.45;;;7.60;99.90;;;;;;5033294;28;20026;-30
2022/05/02 03:59:50;;;;;;;8.75;5.65;;;7.60;99.90;;;;;;5033255;28;20056;-32
2022/05/02 04:02:16;;;;;;;12.43;6.43;;;7.50;99.90;;;;;;5033048;28;20018;-29
2022/05/02 04:04:42;;;;;;;9.85;6.07;;;7.50;99.90;;;;;;5033081;28;20026;-30
2022/05/02 04:07:07;;;;;;;12.80;6.05;;;7.50;99.90;;;;;;5033179;28;20112;-28
2022/05/02 04:09:33;;;;;;;14.23;6.50;;;7.50;99.90;;;;;;5033158;28;20025;-28
2022/05/02 04:11:59;;;;;;;9.70;5.85;;;7.60;99.90;;;;;;5032893;28;20164;-29
2022/05/02 04:14:24;;;;;;;11.20;6.22;;;7.50;99.90;;;;;;5033103;28;20057;-30
2022/05/02 04:16:50;;;;;;;8.60;4.75;;;7.60;99.90;;;;;;5033338;28;20029;-47
2022/05/02 04:19:17;;;;;;;6.60;4.72;;;7.60;99.90;;;;;;5033063;28;20421;-37
2022/05/02 04:21:43;;;;;;;13.30;5.60;;;7.60;99.90;;;;;;5033288;28;20126;-36
2022/05/02 04:24:09;;;;;;;9.57;5.07;;;7.60;99.90;;;;;;5033174;28;20030;-37
2022/05/02 04:26:35;;;;;;;12.68;5.88;;;7.50;99.90;;;;;;5032992;28;20136;-38
2022/05/02 04:29:01;;;;;;;8.82;5.43;;;7.50;99.90;;;;;;5031768;28;20504;-37
2022/05/02 04:31:26;;;;;;;12.02;6.32;;;7.50;99.90;;;;;;5032887;28;20030;-57
2022/05/02 04:33:52;;;;;;;9.05;4.93;;;7.50;99.90;;;;;;5031518;28;20117;-29
2022/05/02 04:36:18;;;;;;;10.70;6.15;;;7.50;99.90;;;;;;5032842;28;20028;-29
2022/05/02 04:38:44;;;;;;;9.75;5.63;;;7.60;99.90;;;;;;5032848;28;20088;-28
2022/05/02 04:41:14;;;;;;;6.43;5.00;;;7.60;99.90;;;;;;5032857;28;20033;-36
2022/05/02 04:43:41;;;;;;;10.57;5.68;;;7.60;99.90;;;;;;5032832;28;20025;-30
2022/05/02 04:46:07;;;;;;;9.70;5.68;;;7.60;99.90;;;;;;5032997;28;20018;-31
2022/05/02 04:48:33;;;;;;;11.82;5.75;;;7.60;99.90;;;;;;5032771;28;20022;-34
2022/05/02 04:50:58;;;;;;;10.05;5.45;;;7.70;99.90;;;;;;5032757;28;20021;-33
2022/05/02 04:53:24;;;;;;;11.27;5.97;;;7.70;99.90;;;;;;5032563;28;20052;-29
2022/05/02 04:55:49;;;;;;;14.38;6.55;;;7.70;99.90;;;;;;5035812;28;20052;-36
2022/05/02 04:58:15;;;;;;;7.55;5.90;;;7.70;99.90;;;;;;5036562;28;20473;-36
2022/05/02 05:00:41;;;;;;;10.70;5.53;;;7.80;99.90;;;;;;5036495;28;20021;-36
2022/05/02 05:03:07;;;;;;;13.95;6.38;;;7.80;99.90;;;;;;5036349;28;20486;-28
2022/05/02 05:05:32;;;;;;;15.45;6.80;;;7.80;99.90;;;;;;5036365;28;20113;-29
2022/05/02 05:07:58;;;;;;;10.85;6.10;;;7.80;99.90;;;;;;5036273;28;20026;-28
2022/05/02 05:10:24;;;;;;;10.07;5.80;;;7.90;99.90;;;;;;5036272;28;20022;-30
2022/05/02 05:13:06;;;;;;;9.85;6.57;;;7.90;99.90;;;;;;5036033;28;20148;-34
2022/05/02 05:16:24;;;;;;;11.77;5.93;;;8.00;99.90;;;;;;5036216;28;20021;-29
2022/05/02 05:19:13;;;;;;;12.70;5.78;;;8.10;99.90;;;;;;5034019;28;20067;-29
2022/05/02 05:21:53;;;;;;;13.73;6.82;;;8.10;99.90;;;;;;5036031;28;20033;-30
2022/05/02 05:25:03;;;;;;;10.18;6.35;;;8.20;99.90;;;;;;5036113;28;20147;-30
2022/05/02 05:27:37;;;;;;;14.43;7.05;;;8.20;99.90;;;;;;5033905;28;20037;-32
2022/05/02 05:30:05;;;;;;;12.60;5.90;;;8.30;99.90;;;;;;5035820;28;20079;-32
2022/05/02 05:32:46;;;;;;;12.93;6.30;;;8.40;99.90;;;;;;5036056;28;20501;-32
2022/05/02 05:35:24;;;;;;;11.00;5.78;;;8.40;99.90;;;;;;5035795;28;20033;-28
2022/05/02 05:38:03;;;;;;;;;;;8.50;99.90;;;;;;5036260;28;20049;-29
2022/05/02 05:40:29;;;;;;;11.55;6.15;;;8.60;99.90;;;;;;5035709;28;20284;-33
2022/05/02 05:43:32;;;;;;;11.23;6.35;;;8.70;99.90;;;;;;5035955;28;20022;-28
2022/05/02 05:46:28;;;;;;;10.18;6.03;;;8.70;99.90;;;;;;5035526;28;20075;-32
2022/05/02 05:49:36;;;;;;;11.45;6.20;;;8.90;99.90;;;;;;5035712;28;20028;-31
2022/05/02 05:52:15;;;;;;;13.15;7.65;;;8.90;99.90;;;;;;5035700;28;20018;-30
2022/05/02 05:55:03;;;;;;;10.90;6.50;;;9.00;99.90;;;;;;5035479;28;20044;-30
2022/05/02 05:57:35;;;;;;;;;;;9.10;99.90;;;;;;5036022;28;20493;-31
2022/05/02 06:00:15;;;;;;;11.40;6.32;;;9.20;99.90;;;;;;5035373;28;19911;-35
2022/05/02 06:03:10;;;;;;;10.48;6.47;;;9.30;99.90;;;;;;5033525;28;20497;-28
2022/05/02 06:05:44;;;;;;;13.70;6.85;;;9.50;99.90;;;;;;5034347;28;20033;-30
2022/05/02 06:08:29;;;;;;;13.70;7.40;;;9.50;99.90;;;;;;5035232;28;20500;-32
2022/05/02 06:10:58;;;;;;;12.27;7.22;;;9.60;99.90;;;;;;5034968;28;20124;-29
2022/05/02 06:13:30;;;;;;;11.13;7.22;;;9.70;99.90;;;;;;5035083;28;20116;-36
2022/05/02 06:18:42;;;;;;;11.13;6.32;;;10.00;99.90;;;;;;5035179;28;20082;-37
2022/05/02 06:21:08;;;;;;;14.55;6.70;;;10.10;99.90;;;;;;5035081;28;20044;-36
2022/05/02 06:23:42;;;;;;;8.93;6.00;;;10.30;99.90;;;;;;5034970;28;20037;-37
2022/05/02 06:26:09;;;;;;;11.23;6.47;;;10.50;99.90;;;;;;5033635;28;20025;-36
2022/05/02 06:28:44;;;;;;;10.20;4.87;;;10.60;99.90;;;;;;5034901;28;20107;-37
2022/05/02 06:31:18;;;;;;;10.35;6.10;;;10.70;99.90;;;;;;5034733;28;20366;-37
2022/05/02 06:33:49;;;;;;;17.35;6.50;;;10.90;99.90;;;;;;5036536;28;20555;-38
2022/05/02 06:36:26;;;;;;;11.05;5.72;;;11.00;99.90;;;;;;5054768;28;20017;-37
2022/05/02 06:39:05;;;;;;;13.52;6.95;;;11.10;99.90;;;;;;5054617;28;20048;-37
2022/05/02 06:41:45;;;;;;;14.25;7.20;;;11.30;99.90;;;;;;5054572;28;20102;-35
2022/05/02 06:44:17;;;;;;;14.40;6.72;;;11.50;99.90;;;;;;5053143;28;20090;-37
2022/05/02 06:46:55;;;;;;;10.80;6.00;;;11.70;99.90;;;;;;5054436;28;20080;-37
2022/05/02 06:49:24;;;;;;;8.13;5.78;;;11.80;99.90;;;;;;5054464;28;20135;-37
2022/05/02 06:51:53;;;;;;;10.45;5.72;;;12.00;99.90;;;;;;5053168;28;20036;-41
2022/05/02 06:54:56;;;;;;;16.40;6.95;;;12.10;99.90;;;;;;5054276;28;20029;-37
2022/05/02 06:57:31;;;;;;;8.80;5.60;;;12.20;99.90;;;;;;5054205;28;20021;-36
2022/05/02 07:00:02;;;;;;;11.40;6.43;;;12.50;99.90;;;;;;5054259;28;20053;-38
2022/05/02 07:02:55;;;;;;;12.27;6.30;;;12.70;99.90;;;;;;5052813;28;20424;-37
2022/05/02 07:05:32;;;;;;;12.18;6.03;;;12.90;99.90;;;;;;5054204;28;20528;-38
2022/05/02 07:08:05;;;;;;;12.70;6.88;;;13.00;99.90;;;;;;5054374;28;20477;-39
2022/05/02 07:10:36;;;;;;;13.80;7.32;;;13.20;99.90;;;;;;5053883;28;20112;-36
2022/05/02 07:13:22;;;;;;;9.68;5.72;;;13.30;99.90;;;;;;5054148;28;20104;-40
2022/05/02 07:15:56;;;;;;;11.82;7.45;;;13.40;99.90;;;;;;5053742;28;20049;-39
2022/05/02 07:18:26;;;;;;;9.55;6.57;;;13.60;99.90;;;;;;5053316;28;20029;-39
2022/05/02 07:21:09;;;;;;;11.57;7.43;;;13.70;99.90;;;;;;5053744;28;20029;-39
2022/05/02 07:23:38;;;;;;;12.38;6.65;;;13.90;99.90;;;;;;5053749;28;20489;-38
2022/05/02 07:26:07;;;;;;;10.52;6.63;;;13.80;99.90;;;;;;5053639;28;20032;-29
2022/05/02 07:28:52;;;;;;;10.82;6.22;;;13.80;99.90;;;;;;5053890;28;20346;-47
2022/05/02 07:31:23;;;;;;;14.73;6.72;;;14.00;99.90;;;;;;5053632;28;20104;-38
2022/05/02 07:33:50;;;;;;;13.63;6.50;;;14.30;99.90;;;;;;5050961;28;20024;-28
2022/05/02 07:36:22;;;;;;;16.45;6.55;;;14.40;99.90;;;;;;5033652;28;20029;-31
2022/05/02 07:38:53;;;;;;;9.35;6.05;;;14.60;99.90;;;;;;5033555;28;20026;-29
2022/05/02 07:41:27;;;;;;;13.60;6.97;;;14.60;99.90;;;;;;5033455;28;20033;-29
2022/05/02 07:44:07;;;;;;;8.85;6.07;;;14.70;99.90;;;;;;5033775;28;20363;-28
2022/05/02 07:46:45;;;;;;;11.13;6.50;;;15.00;99.90;;;;;;5033689;28;20481;-27
2022/05/02 07:49:14;;;;;;;17.02;5.97;;;15.30;99.90;;;;;;5033311;28;20104;-28
2022/05/02 07:51:50;;;;;;;14.07;6.35;;;15.40;99.90;;;;;;5032213;28;20033;-29
2022/05/02 07:54:26;;;;;;;10.48;6.75;;;15.30;99.90;;;;;;5032413;28;20044;-33
2022/05/02 07:56:57;;;;;;;8.68;6.18;;;15.40;99.90;;;;;;5033297;28;20018;-29
2022/05/02 07:59:49;;;;;;;12.55;6.13;;;15.60;99.90;;;;;;5033252;28;20029;-29
2022/05/02 08:02:16;;;;;;;8.80;5.25;;;16.00;99.90;;;;;;5032710;28;20172;-39
2022/05/02 08:04:44;;;;;;;9.98;5.57;;;16.00;99.90;;;;;;5033448;28;20030;-29
2022/05/02 08:07:22;;;;;;;10.90;6.13;;;15.90;99.90;;;;;;5033369;28;20469;-30
2022/05/02 08:10:00;;;;;;;;;;;15.70;99.90;;;;;;5033545;28;20022;-27
2022/05/02 08:12:30;;;;;;;10.23;6.25;;;15.60;99.90;;;;;;5032867;28;20376;-37
2022/05/02 08:15:02;;;;;;;15.43;6.60;;;15.70;99.90;;;;;;5033059;28;20470;-36
2022/05/02 08:17:47;;;;;;;8.07;5.25;;;15.90;99.90;;;;;;5031964;28;20074;-36
2022/05/02 08:20:35;;;;;;;7.28;5.72;;;16.10;99.90;;;;;;5033295;28;20398;-37
2022/05/02 08:27:16;;;;;;;7.65;5.00;;;16.30;99.10;;;;;;5033082;28;20036;-37
2022/05/02 08:30:01;;;;;;;11.25;5.72;;;16.40;98.60;;;;;;5035797;28;20511;-38
2022/05/02 08:32:57;;;;;;;10.77;6.35;;;16.30;98.50;;;;;;5037277;28;20029;-37
2022/05/02 08:35:57;;;;;;;10.20;5.70;;;16.20;98.30;;;;;;5052275;28;20017;-36
2022/05/02 08:38:44;;;;;;;11.63;5.00;;;15.90;99.60;;;;;;5056793;28;20481;-37
2022/05/02 08:41:28;;;;;;;9.60;4.78;;;15.80;98.80;;;;;;5056704;28;20146;-39
2022/05/02 08:44:25;;;;;;;12.55;5.55;;;15.80;98.80;;;;;;5056616;28;20036;-42
2022/05/02 08:47:28;;;;;;;8.38;5.90;;;16.20;98.30;;;;;;5049340;28;20033;-35
2022/05/02 08:50:29;;;;;;;8.82;5.57;;;16.50;98.00;;;;;;5056417;28;20056;-36
2022/05/02 08:53:07;;;;;;;9.25;5.32;;;16.80;98.00;;;;;;5046443;28;20102;-37
2022/05/02 08:56:17;;;;;;;14.55;5.38;;;17.30;96.80;;;;;;5056646;28;20017;-36
2022/05/02 08:59:04;;;;;;;8.90;5.88;;;17.50;96.70;;;;;;5055093;28;20086;-35
2022/05/02 09:02:00;;;;;;;16.23;5.47;;;18.00;96.30;;;;;;5056330;28;20040;-37
2022/05/02 09:04:37;;;;;;;6.30;4.07;;;18.30;96.30;;;;;;5056394;28;20032;-42
2022/05/02 09:07:09;;;;;;;;;;;18.30;94.80;;;;;;5056816;28;20017;-36
2022/05/02 09:10:12;;;;;;;5.93;4.07;;;18.50;94.70;;;;;;5056444;28;20423;-32
2022/05/02 09:13:02;;;;;;;6.85;4.20;;;18.80;95.00;;;;;;5044797;28;20052;-33
2022/05/02 09:15:53;;;;;;;8.77;4.90;;;19.10;94.00;;;;;;5054883;28;20062;-34
2022/05/02 09:18:53;;;;;;;10.25;5.22;;;18.80;94.50;;;;;;5056269;28;20033;-31
2022/05/02 09:21:40;;;;;;;8.68;4.35;;;18.70;94.20;;;;;;5056028;28;20029;-33
2022/05/02 09:24:14;;;;;;;;;;;18.80;93.80;;;;;;5056299;28;20029;-30
2022/05/02 09:27:15;;;;;;;6.03;3.88;;;18.80;93.70;;;;;;5055931;28;19978;-30
2022/05/02 09:29:46;;;;;;;6.15;3.83;;;18.90;93.10;;;;;;5046854;28;20033;-36
2022/05/02 09:32:44;;;;;;;10.38;4.22;;;19.50;92.20;;;;;;5055804;28;20131;-30
2022/05/02 09:35:52;;;;;;;10.63;4.18;;;19.70;92.70;;;;;;5034525;28;20033;-47
2022/05/02 09:38:25;;;;;;;8.15;4.22;;;19.80;91.50;;;;;;5030067;28;20029;-35
2022/05/02 09:40:59;;;;;;;10.70;4.50;;;19.20;93.00;;;;;;5034902;28;20075;-36
2022/05/02 09:50:07;;;;;;;5.63;3.20;;;20.10;91.70;;;;;;5035916;28;20488;-39
2022/05/02 09:52:51;;;;;;;5.05;3.72;;;20.40;90.40;;;;;;5035467;28;20100;-38
2022/05/02 09:58:33;;;;;;;6.35;4.07;;;20.10;91.10;;;;;;5033672;28;20035;-37
2022/05/02 10:01:06;;;;;;;9.55;4.35;;;20.10;91.40;;;;;;5035407;28;20109;-30
2022/05/02 10:03:49;;;;;;;7.20;4.03;;;19.90;91.90;;;;;;5035453;28;20021;-50
2022/05/02 10:06:26;;;;;;;7.97;5.25;;;19.90;92.40;;;;;;5035621;28;20030;-38
2022/05/02 10:09:31;;;;;;;5.47;4.03;;;19.10;93.00;;;;;;5035302;28;20489;-38
2022/05/02 10:12:26;;;;;;;7.97;5.35;;;19.60;93.00;;;;;;5023579;28;20050;-38
2022/05/02 10:15:33;;;;;;;5.72;4.07;;;18.70;93.10;;;;;;5035148;28;20478;-36
2022/05/02 10:18:14;;;;;;;4.55;3.65;;;18.90;92.50;;;;;;5013093;28;20026;-58
2022/05/02 10:21:17;;;;;;;4.43;3.75;;;19.30;93.20;;;;;;4996574;28;20038;-42
2022/05/02 10:24:01;;;;;;;10.70;4.00;;;19.50;90.80;;;;;;5030821;28;20068;-38
2022/05/02 10:26:38;;;;;;;8.00;3.22;;;19.60;90.90;;;;;;5034782;28;20026;-37
2022/05/02 10:29:30;;;;;;;6.72;3.25;;;20.40;90.40;;;;;;5034893;28;20021;-38
2022/05/02 10:32:02;;;;;;;8.27;4.07;;;19.90;91.20;;;;;;5033133;28;20041;-38
2022/05/02 10:34:30;;;;;;;5.22;3.40;;;19.40;91.60;;;;;;5034518;28;20096;-38
2022/05/02 10:37:00;;;;;;;3.60;3.28;;;18.70;92.10;;;;;;5033693;28;20032;-37
2022/05/02 10:39:40;;;;;;;3.75;3.10;;;18.80;92.30;;;;;;5034482;28;20104;-36
2022/05/02 10:42:08;;;;;;;6.85;3.08;;;19.20;91.80;;;;;;5034562;28;20048;-37
2022/05/02 10:45:04;;;;;;;6.45;3.85;;;19.50;91.60;;;;;;5034672;28;20108;-36
2022/05/02 10:47:40;;;;;;;7.13;4.38;;;19.10;92.20;;;;;;5033116;28;20395;-37
2022/05/02 10:50:19;;;;;;;10.23;4.93;;;18.90;92.70;;;;;;5034415;28;20481;-39
2022/05/02 10:52:53;;;;;;;7.75;4.32;;;18.40;93.30;;;;;;5033507;28;20030;-48
2022/05/02 10:55:27;;;;;;;4.70;3.78;;;17.90;93.80;;;;;;5034340;28;20029;-43
2022/05/02 10:57:53;;;;;;;6.30;3.92;;;18.00;94.20;;;;;;5034488;28;20445;-39
2022/05/02 11:00:20;;;;;;;6.57;5.07;;;18.10;95.20;;;;;;5032803;28;20075;-37
2022/05/02 11:03:12;;;;;;;11.93;4.28;;;17.90;94.30;;;;;;5034304;28;20072;-37
2022/05/02 11:06:14;;;;;;;6.57;4.45;;;17.90;94.30;;;;;;5033970;28;20029;-37
2022/05/02 11:08:45;;;;;;;6.65;4.78;;;17.80;94.70;;;;;;5034036;28;20029;-37
2022/05/02 11:11:21;;;;;;;7.50;4.47;;;17.80;96.10;;;;;;5033825;28;20510;-37
2022/05/02 11:14:02;;;;;;;6.85;4.53;;;17.60;95.80;;;;;;5033948;28;20036;-36
2022/05/02 11:16:41;;;;;;;8.07;4.35;;;17.70;95.90;;;;;;5034179;28;20029;-36
2022/05/02 11:22:19;;;;;;;10.50;5.03;;;17.40;96.40;;;;;;5034093;28;20036;-37
2022/05/02 11:25:10;;;;;;;7.45;4.78;;;17.40;96.30;;;;;;5033903;28;20397;-44
2022/05/02 11:27:53;;;;;;;9.23;5.13;;;17.30;97.00;;;;;;5033573;28;20026;-37
2022/05/02 11:30:23;;;;;;;6.70;5.22;;;17.10;95.90;;;;;;5033713;28;20033;-37
2022/05/02 11:33:05;;;;;;;6.13;4.38;;;17.00;96.50;;;;;;5033631;28;20393;-37
2022/05/02 11:35:33;;;;;;;6.60;4.53;;;17.00;96.40;;;;;;5033408;28;20097;-29
2022/05/02 11:38:23;;;;;;;6.88;5.32;;;17.00;96.50;;;;;;5033859;28;20628;-33
2022/05/02 11:40:53;;;;;;;9.20;4.53;;;17.10;95.80;;;;;;5033496;28;20032;-35
2022/05/02 11:43:23;;;;;;;6.90;4.78;;;17.30;96.80;;;;;;5033416;28;20026;-29
2022/05/02 11:46:18;;;;;;;8.55;4.60;;;17.40;96.60;;;;;;5032013;28;20026;-31
2022/05/02 11:49:09;;;;;;;9.27;4.28;;;17.60;96.10;;;;;;5033351;28;20021;-30
2022/05/02 11:51:37;;;;;;;7.80;4.47;;;17.70;95.20;;;;;;5033048;28;20025;-32
2022/05/02 11:54:12;;;;;;;9.18;4.68;;;17.90;95.60;;;;;;5033462;28;20025;-36
2022/05/02 11:56:48;;;;;;;5.38;3.88;;;17.80;94.70;;;;;;5033527;28;20473;-39
2022/05/02 11:59:21;;;;;;;8.05;4.65;;;17.70;95.30;;;;;;5033112;28;20025;-37
2022/05/02 12:01:55;;;;;;;7.35;4.50;;;17.80;96.20;;;;;;5033120;28;20021;-41
2022/05/02 12:04:26;;;;;;;5.60;4.18;;;17.80;95.00;;;;;;5033196;28;20499;-38
2022/05/02 12:07:05;;;;;;;6.47;4.22;;;18.10;95.70;;;;;;5033119;28;20029;-29
2022/05/02 12:09:34;;;;;;;7.82;4.40;;;18.30;94.90;;;;;;5033330;28;20029;-32
2022/05/02 12:12:06;;;;;;;14.57;5.03;;;18.40;95.10;;;;;;5032681;28;20517;-31
2022/05/02 12:14:33;;;;;;;4.38;3.83;;;18.70;95.10;;;;;;5033275;28;20141;-32
2022/05/02 12:17:06;;;;;;;5.97;3.95;;;18.30;94.80;;;;;;5033240;28;20053;-37
2022/05/02 12:19:32;;;;;;;6.63;4.20;;;18.10;95.10;;;;;;5032853;28;20064;-39
2022/05/02 12:22:02;;;;;;;7.80;4.93;;;18.20;95.70;;;;;;5032734;28;20025;-33
2022/05/02 12:24:33;;;;;;;9.57;4.22;;;18.40;94.80;;;;;;5032860;28;20018;-30
2022/05/02 12:26:59;;;;;;;8.38;4.07;;;18.20;94.90;;;;;;5033074;28;20474;-29
2022/05/02 12:29:27;;;;;;;15.05;4.65;;;18.20;94.70;;;;;;5032854;28;20049;-28
2022/05/02 12:32:02;;;;;;;8.30;4.13;;;18.20;94.40;;;;;;5031446;28;20021;-29
2022/05/02 12:34:41;;;;;;;4.75;3.97;;;18.10;94.40;;;;;;5032651;28;20104;-28
2022/05/02 12:37:23;;;;;;;5.75;4.10;;;17.70;95.10;;;;;;5031463;28;20017;-32
2022/05/02 12:40:05;;;;;;;4.97;3.83;;;17.80;96.00;;;;;;5032532;28;20022;-31
2022/05/02 12:42:39;;;;;;;4.80;3.35;;;17.90;94.40;;;;;;5032543;28;20057;-32
2022/05/02 12:45:13;;;;;;;6.63;3.55;;;17.90;95.50;;;;;;5032671;28;20473;-29
2022/05/02 12:48:07;;;;;;;4.40;3.92;;;17.90;94.50;;;;;;5032646;28;20029;-31
2022/05/02 12:50:44;;;;;;;4.30;3.65;;;18.00;94.40;;;;;;5032351;28;20056;-29
2022/05/02 12:54:09;;;;;;;6.72;3.00;;;18.30;94.20;;;;;;5032438;28;20072;-34
2022/05/02 12:56:05;;;;;;;3.95;3.30;;;18.40;93.30;;;;;;5032267;28;20040;-33
2022/05/02 13:01:19;;;;;;;4.88;2.75;;;18.50;93.20;;;;;;5032530;28;20036;-27
2022/05/02 13:03:55;;;;;;;6.10;2.80;;;18.20;93.30;;;;;;5032367;28;20440;-28
2022/05/02 13:06:21;;;;;;;4.88;2.65;;;18.30;93.00;;;;;;5032314;28;20048;-29
2022/05/02 13:08:47;;;;;;;3.83;3.45;;;18.50;93.00;;;;;;5031065;28;20026;-32
2022/05/02 13:11:20;;;;;;;6.03;3.00;;;18.40;92.00;;;;;;5032282;28;20050;-31
2022/05/02 13:13:49;;;;;;;10.15;2.67;;;18.10;93.10;;;;;;5032267;28;20030;-28
2022/05/02 13:16:28;;;;;;;2.63;2.42;;;17.90;92.20;;;;;;5035454;28;20064;-30
2022/05/02 13:18:55;;;;;;;3.63;2.85;;;17.90;92.50;;;;;;5036015;28;20025;-31
2022/05/02 13:21:21;;;;;;;4.32;2.75;;;18.00;92.80;;;;;;5036088;28;20021;-31
2022/05/02 13:23:49;;;;;;;7.32;2.38;;;18.10;91.90;;;;;;5035958;28;20030;-29
2022/05/02 13:26:40;;;;;;;5.18;2.95;;;17.80;92.30;;;;;;5036025;28;20049;-27
2022/05/02 13:29:24;;;;;;;2.58;2.38;;;18.20;92.00;;;;;;5036230;28;20037;-28
2022/05/02 13:32:01;;;;;;;2.00;1.90;;;18.50;91.50;;;;;;5035885;28;20025;-30
2022/05/02 13:34:50;;;;;;;2.35;2.17;;;18.60;91.00;;;;;;5034500;28;20470;-32
2022/05/02 13:37:41;;;;;;;3.35;1.50;;;18.60;91.00;;;;;;5035972;28;20489;-30
2022/05/02 13:40:08;;;;;;;4.95;3.08;;;18.40;91.00;;;;;;5034602;28;20100;-32
2022/05/02 13:42:55;;;;;;;4.35;1.85;;;18.60;91.20;;;;;;5035274;28;20025;-30
2022/05/02 13:45:46;;;;;;;2.30;2.03;;;18.50;90.00;;;;;;5035689;28;20029;-28
2022/05/02 13:48:40;;;;;;;1.85;1.52;;;18.30;91.20;;;;;;5035784;28;20029;-32
2022/05/02 13:51:25;;;;;;;2.08;1.73;;;18.00;90.40;;;;;;5035261;28;20057;-29
2022/05/02 13:53:59;;;;;;;4.72;1.40;;;18.00;90.60;;;;;;5035394;28;20030;-30
2022/05/02 13:56:47;;;;;;;4.90;2.50;;;18.30;90.30;;;;;;5035410;28;20029;-31